createdAt,value
2019-04-22T00:01:25.900Z,49.20
2019-04-22T00:04:02.650Z,49.00
2019-04-22T00:06:49.743Z,48.50
2019-04-22T00:09:27.099Z,48.10
2019-04-22T00:11:58.960Z,48.10
2019-04-22T00:14:26.758Z,48.80
2019-04-22T00:17:08.518Z,49.10
2019-04-22T00:19:37.214Z,48.50
2019-04-22T00:22:13.936Z,48.60
2019-04-22T00:24:39.100Z,48.50
2019-04-22T00:27:13.749Z,48.60
2019-04-22T00:32:30.309Z,48.70
2019-04-22T00:35:02.435Z,48.20
2019-04-22T00:37:43.492Z,48.20
2019-04-22T00:40:14.882Z,48.80
2019-04-22T00:45:25.498Z,49.70
2019-04-22T00:47:44.902Z,49.90
2019-04-22T00:50:23.559Z,49.00
2019-04-22T00:52:59.928Z,48.60
2019-04-22T00:55:24.553Z,48.40
2019-04-22T00:58:02.754Z,47.80
2019-04-22T01:00:30.991Z,47.20
2019-04-22T01:03:10.966Z,47.30
2019-04-22T01:05:40.851Z,47.30
2019-04-22T01:08:15.162Z,47.10
2019-04-22T01:10:49.389Z,47.00
2019-04-22T01:13:18.582Z,46.80
2019-04-22T01:15:54.171Z,46.60
2019-04-22T01:18:18.246Z,46.50
2019-04-22T01:21:09.510Z,46.40
2019-04-22T01:23:24.016Z,46.90
2019-04-22T01:25:49.538Z,47.10
2019-04-22T01:28:26.398Z,47.80
2019-04-22T01:30:51.471Z,47.80
2019-04-22T01:33:23.867Z,47.50
2019-04-22T01:36:08.017Z,47.40
2019-04-22T01:38:45.403Z,47.30
2019-04-22T01:41:30.316Z,47.10
2019-04-22T01:44:00.688Z,47.00
2019-04-22T01:46:24.746Z,47.00
2019-04-22T01:48:57.394Z,46.90
2019-04-22T01:51:35.537Z,47.10
2019-04-22T01:54:05.216Z,47.00
2019-04-22T01:56:33.265Z,47.30
2019-04-22T01:58:57.423Z,47.60
2019-04-22T02:01:42.115Z,47.80
2019-04-22T02:04:08.951Z,47.80
2019-04-22T02:06:44.417Z,48.00
2019-04-22T02:09:18.830Z,48.30
2019-04-22T02:14:20.358Z,48.80
2019-04-22T02:16:56.990Z,48.90
2019-04-22T02:21:54.081Z,49.20
2019-04-22T02:24:33.408Z,49.10
2019-04-22T02:27:02.983Z,48.90
2019-04-22T02:29:34.737Z,48.90
2019-04-22T02:34:45.999Z,49.30
2019-04-22T02:39:47.110Z,49.60
2019-04-22T02:42:14.203Z,49.80
2019-04-22T02:47:36.213Z,51.40
2019-04-22T02:50:02.489Z,52.20
2019-04-22T02:52:31.150Z,53.40
2019-04-22T02:55:11.541Z,54.20
2019-04-22T02:57:35.465Z,54.50
2019-04-22T03:00:18.318Z,56.20
2019-04-22T03:02:50.602Z,54.90
2019-04-22T03:05:21.633Z,53.80
2019-04-22T03:07:55.998Z,53.30
2019-04-22T03:10:35.385Z,53.80
2019-04-22T03:13:09.268Z,53.70
2019-04-22T03:15:19.884Z,53.50
2019-04-22T03:18:16.179Z,53.30
2019-04-22T03:20:27.018Z,53.20
2019-04-22T03:23:09.786Z,53.00
2019-04-22T03:27:58.319Z,52.60
2019-04-22T03:33:19.104Z,52.80
2019-04-22T03:35:55.566Z,52.40
2019-04-22T03:38:31.198Z,52.10
2019-04-22T03:40:55.272Z,51.70
2019-04-22T03:43:33.843Z,55.50
2019-04-22T03:45:53.002Z,59.40
2019-04-22T03:48:26.176Z,63.00
2019-04-22T03:51:07.506Z,65.20
2019-04-22T03:53:33.623Z,64.00
2019-04-22T04:03:57.819Z,68.10
2019-04-22T04:06:20.631Z,70.20
2019-04-22T04:08:38.869Z,71.80
2019-04-22T04:11:30.346Z,68.90
2019-04-22T04:14:05.479Z,65.60
2019-04-22T04:16:35.314Z,63.80
2019-04-22T04:21:32.926Z,62.40
2019-04-22T04:24:11.699Z,60.80
2019-04-22T04:26:45.629Z,59.70
2019-04-22T04:29:39.025Z,59.00
2019-04-22T04:34:34.687Z,60.20
2019-04-22T04:37:07.482Z,59.40
2019-04-22T04:39:17.768Z,59.60
2019-04-22T04:41:52.182Z,59.90
2019-04-22T04:44:35.286Z,62.90
2019-04-22T04:47:04.987Z,66.90
2019-04-22T04:57:07.349Z,79.40
2019-04-22T04:59:57.710Z,81.00
2019-04-22T05:02:17.532Z,83.30
2019-04-22T05:05:02.945Z,83.50
2019-04-22T05:07:19.186Z,84.70
2019-04-22T05:09:44.679Z,85.70
2019-04-22T05:17:25.560Z,87.90
2019-04-22T05:20:00.789Z,88.40
2019-04-22T05:22:28.051Z,88.80
2019-04-22T05:24:58.220Z,89.80
2019-04-22T05:27:34.255Z,90.00
2019-04-22T05:30:19.821Z,90.20
2019-04-22T05:32:37.287Z,90.40
2019-04-22T05:35:09.632Z,90.40
2019-04-22T05:37:40.387Z,90.60
2019-04-22T05:40:16.349Z,90.70
2019-04-22T05:42:44.184Z,90.90
2019-04-22T05:45:17.690Z,90.50
2019-04-22T05:50:18.944Z,90.40
2019-04-22T05:52:55.197Z,90.60
2019-04-22T05:55:33.231Z,90.70
2019-04-22T05:58:04.240Z,90.60
2019-04-22T06:00:49.183Z,90.40
2019-04-22T06:03:07.213Z,90.30
2019-04-22T06:05:55.605Z,90.20
2019-04-22T06:08:10.410Z,90.10
2019-04-22T06:10:48.599Z,90.30
2019-04-22T06:13:15.809Z,90.60
2019-04-22T06:15:43.610Z,90.70
2019-04-22T06:18:26.022Z,90.60
2019-04-22T06:26:14.450Z,90.10
2019-04-22T06:28:38.363Z,90.00
2019-04-22T06:31:03.682Z,89.70
2019-04-22T06:33:34.797Z,89.60
2019-04-22T06:36:08.625Z,90.10
2019-04-22T06:38:40.300Z,90.20
2019-04-22T06:41:15.058Z,90.50
2019-04-22T06:43:45.673Z,90.70
2019-04-22T06:46:16.979Z,90.50
2019-04-22T06:48:44.727Z,90.50
2019-04-22T06:51:20.095Z,90.50
2019-04-22T06:53:48.045Z,90.10
2019-04-22T06:56:22.170Z,90.30
2019-04-22T06:58:55.131Z,90.00
2019-04-22T07:01:27.630Z,88.30
2019-04-22T07:04:01.511Z,87.70
2019-04-22T07:06:35.086Z,87.20
2019-04-22T07:09:20.738Z,87.30
2019-04-22T07:11:37.850Z,85.60
2019-04-22T07:14:04.240Z,83.60
2019-04-22T07:16:44.655Z,81.40
2019-04-22T07:19:13.805Z,79.60
2019-04-22T07:21:46.808Z,78.70
2019-04-22T07:26:51.157Z,76.00
2019-04-22T07:29:39.149Z,76.20
2019-04-22T07:32:00.564Z,75.00
2019-04-22T07:34:33.362Z,73.30
2019-04-22T07:37:09.526Z,72.40
2019-04-22T07:39:35.480Z,73.10
2019-04-22T07:42:05.523Z,74.10
2019-04-22T07:44:38.584Z,72.00
2019-04-22T07:49:48.944Z,66.70
2019-04-22T07:52:15.889Z,65.20
2019-04-22T07:54:46.775Z,62.60
2019-04-22T07:57:27.833Z,61.00
2019-04-22T08:00:00.737Z,60.20
2019-04-22T08:02:26.029Z,59.50
2019-04-22T08:07:30.410Z,59.90
2019-04-22T08:10:09.188Z,61.70
2019-04-22T08:12:36.572Z,62.40
2019-04-22T08:15:05.656Z,61.60
2019-04-22T08:20:09.150Z,60.00
2019-04-22T08:22:47.681Z,59.60
2019-04-22T08:25:14.126Z,60.00
2019-04-22T08:27:45.591Z,60.40
2019-04-22T08:30:25.024Z,61.10
2019-04-22T08:32:54.535Z,59.70
2019-04-22T08:35:29.367Z,59.20
2019-04-22T08:37:57.681Z,59.80
2019-04-22T08:40:32.527Z,58.10
2019-04-22T08:43:07.266Z,55.50
2019-04-22T08:45:43.046Z,55.90
2019-04-22T08:48:01.789Z,57.20
2019-04-22T08:50:39.463Z,57.00
2019-04-22T08:53:16.104Z,56.10
2019-04-22T08:55:51.989Z,55.50
2019-04-22T08:58:29.490Z,55.30
2019-04-22T09:00:51.839Z,51.90
2019-04-22T09:03:18.774Z,46.80
2019-04-22T09:08:29.630Z,45.90
2019-04-22T09:10:59.931Z,46.60
2019-04-22T09:13:31.279Z,47.30
2019-04-22T09:16:08.785Z,47.50
2019-04-22T09:18:34.745Z,48.10
2019-04-22T09:21:14.308Z,48.00
2019-04-22T09:23:50.583Z,48.80
2019-04-22T09:26:18.188Z,48.80
2019-04-22T09:31:30.448Z,49.10
2019-04-22T09:33:59.609Z,49.00
2019-04-22T09:39:10.637Z,47.30
2019-04-22T09:41:27.183Z,47.00
2019-04-22T09:43:56.695Z,46.60
2019-04-22T09:46:39.018Z,46.90
2019-04-22T09:49:10.037Z,46.80
2019-04-22T09:51:36.940Z,46.90
2019-04-22T09:59:13.962Z,48.50
2019-04-22T10:01:38.457Z,48.10
2019-04-22T10:04:10.070Z,51.70
2019-04-22T10:06:41.146Z,47.30
2019-04-22T10:09:46.466Z,47.60
2019-04-22T10:11:50.819Z,46.80
2019-04-22T10:14:28.473Z,46.40
2019-04-22T10:16:53.893Z,46.90
2019-04-22T10:19:31.410Z,48.30
2019-04-22T10:21:57.300Z,50.50
2019-04-22T10:24:31.977Z,52.50
2019-04-22T10:27:08.031Z,53.80
2019-04-22T10:29:51.464Z,55.50
2019-04-22T10:32:15.896Z,56.70
2019-04-22T10:34:34.067Z,57.40
2019-04-22T10:36:58.703Z,58.80
2019-04-22T10:39:36.795Z,59.10
2019-04-22T10:41:58.888Z,59.80
2019-04-22T10:44:30.915Z,60.40
2019-04-22T10:47:02.255Z,59.70
2019-04-22T10:49:34.601Z,60.30
2019-04-22T10:52:06.632Z,59.70
2019-04-22T10:54:37.680Z,60.10
2019-04-22T10:57:10.755Z,60.10
2019-04-22T10:59:42.582Z,60.10
2019-04-22T11:02:13.770Z,59.60
2019-04-22T11:04:44.345Z,58.50
2019-04-22T11:07:16.851Z,57.30
2019-04-22T11:09:55.095Z,56.60
2019-04-22T11:12:23.370Z,57.00
2019-04-22T11:14:51.840Z,56.00
2019-04-22T11:17:23.958Z,55.10
2019-04-22T11:19:55.600Z,53.20
2019-04-22T11:22:31.622Z,52.80
2019-04-22T11:24:59.865Z,53.50
2019-04-22T11:27:32.932Z,53.20
2019-04-22T11:30:04.011Z,53.10
2019-04-22T11:32:36.145Z,52.80
2019-04-22T11:35:07.874Z,52.70
2019-04-22T11:37:38.749Z,52.40
2019-04-22T11:42:43.807Z,47.70
2019-04-22T11:45:15.278Z,46.60
2019-04-22T11:47:45.930Z,44.50
2019-04-22T11:52:46.944Z,46.40
2019-04-22T11:55:19.048Z,47.30
2019-04-22T11:57:49.936Z,47.10
2019-04-22T12:00:28.025Z,45.40
2019-04-22T12:02:58.835Z,46.90
2019-04-22T12:08:00.477Z,43.40
2019-04-22T12:10:38.955Z,42.20
2019-04-22T12:13:03.998Z,40.90
2019-04-22T12:15:35.188Z,40.30
2019-04-22T12:18:07.005Z,40.40
2019-04-22T12:20:39.187Z,41.70
2019-04-22T12:23:11.190Z,41.40
2019-04-22T12:25:48.775Z,42.80
2019-04-22T12:28:15.083Z,43.90
2019-04-22T12:30:45.795Z,42.10
2019-04-22T12:33:17.045Z,41.60
2019-04-22T12:35:48.502Z,39.80
2019-04-22T12:38:20.326Z,40.80
2019-04-22T12:40:57.426Z,41.00
2019-04-22T12:43:24.575Z,40.30
2019-04-22T12:45:56.286Z,38.20
2019-04-22T12:48:27.454Z,37.50
2019-04-22T12:50:58.701Z,38.00
2019-04-22T12:53:29.932Z,38.80
2019-04-22T12:56:01.264Z,39.50
2019-04-22T12:58:33.895Z,40.50
2019-04-22T13:01:04.699Z,41.30
2019-04-22T13:03:36.115Z,41.30
2019-04-22T13:06:07.819Z,42.40
2019-04-22T13:08:39.030Z,43.10
2019-04-22T13:11:13.946Z,43.70
2019-04-22T13:13:42.922Z,44.00
2019-04-22T13:16:15.373Z,44.40
2019-04-22T13:18:53.089Z,43.90
2019-04-22T13:21:18.583Z,43.40
2019-04-22T13:23:50.814Z,43.20
2019-04-22T13:26:21.403Z,41.50
2019-04-22T13:28:52.013Z,40.80
2019-04-22T13:31:22.871Z,40.10
2019-04-22T13:33:57.247Z,40.20
2019-04-22T13:36:27.658Z,40.00
2019-04-22T13:38:58.750Z,39.30
2019-04-22T13:41:37.413Z,39.10
2019-04-22T13:44:07.094Z,39.10
2019-04-22T13:46:38.744Z,39.40
2019-04-22T13:49:47.802Z,39.40
2019-04-22T13:52:20.749Z,38.80
2019-04-22T13:57:03.431Z,37.70
2019-04-22T13:59:26.737Z,38.20
2019-04-22T14:02:16.945Z,37.90
2019-04-22T14:04:50.524Z,38.30
2019-04-22T14:07:21.317Z,38.30
2019-04-22T14:09:51.849Z,39.20
2019-04-22T14:12:22.395Z,38.60
2019-04-22T14:14:54.288Z,39.50
2019-04-22T14:17:26.983Z,40.00
2019-04-22T14:19:57.779Z,41.00
2019-04-22T14:22:28.691Z,41.00
2019-04-22T14:25:00.585Z,41.40
2019-04-22T14:27:40.742Z,42.00
2019-04-22T14:30:03.591Z,42.80
2019-04-22T14:32:36.527Z,43.90
2019-04-22T14:35:11.298Z,44.90
2019-04-22T14:37:42.490Z,45.60
2019-04-22T14:40:14.684Z,45.50
2019-04-22T14:43:10.531Z,46.00
2019-04-22T14:45:52.166Z,46.70
2019-04-22T14:48:10.759Z,47.20
2019-04-22T14:53:14.448Z,47.10
2019-04-22T14:55:32.430Z,48.20
2019-04-22T14:58:01.208Z,48.70
2019-04-22T15:00:33.772Z,50.00
2019-04-22T15:03:05.858Z,51.30
2019-04-22T15:08:07.225Z,52.20
2019-04-22T15:10:38.074Z,53.20
2019-04-22T15:13:09.526Z,53.40
2019-04-22T15:15:59.504Z,53.20
2019-04-22T15:18:53.906Z,52.70
2019-04-22T15:21:27.035Z,52.50
2019-04-22T15:24:00.506Z,52.00
2019-04-22T15:26:32.664Z,52.10
2019-04-22T15:29:03.286Z,52.40
2019-04-22T15:31:35.366Z,53.00
2019-04-22T15:34:06.828Z,52.90
2019-04-22T15:36:37.848Z,52.70
2019-04-22T15:39:09.347Z,53.70
2019-04-22T15:41:50.390Z,54.50
2019-04-22T15:44:13.837Z,54.80
2019-04-22T15:46:44.602Z,55.40
2019-04-22T15:49:16.096Z,55.80
2019-04-22T15:51:46.865Z,56.40
2019-04-22T15:54:17.593Z,57.10
2019-04-22T15:56:48.842Z,57.60
2019-04-22T15:59:41.684Z,58.60
2019-04-22T16:01:53.190Z,59.50
2019-04-22T16:04:23.977Z,60.00
2019-04-22T16:06:54.909Z,60.00
2019-04-22T16:09:26.748Z,60.10
2019-04-22T16:12:11.000Z,60.10
2019-04-22T16:14:35.128Z,60.30
2019-04-22T16:17:01.926Z,60.30
2019-04-22T16:19:36.949Z,60.70
2019-04-22T16:22:13.315Z,60.70
2019-04-22T16:25:15.354Z,61.50
2019-04-22T16:27:46.015Z,62.50
2019-04-22T16:30:17.267Z,63.50
2019-04-22T16:32:47.953Z,64.50
2019-04-22T16:35:18.761Z,64.90
2019-04-22T16:37:50.611Z,65.00
2019-04-22T16:40:22.854Z,64.60
2019-04-22T16:42:58.720Z,64.50
2019-04-22T16:45:25.807Z,64.80
2019-04-22T16:47:57.883Z,65.20
2019-04-22T16:50:29.273Z,65.20
2019-04-22T16:53:00.183Z,65.60
2019-04-22T16:55:30.864Z,64.00
2019-04-22T16:58:03.075Z,64.10
2019-04-22T17:00:34.405Z,63.80
2019-04-22T17:03:24.900Z,64.00
2019-04-22T17:06:32.551Z,63.70
2019-04-22T17:09:02.601Z,63.50
2019-04-22T17:11:35.869Z,63.20
2019-04-22T17:14:07.745Z,63.00
2019-04-22T17:16:38.702Z,62.50
2019-04-22T17:19:09.306Z,62.70
2019-04-22T17:21:39.888Z,62.70
2019-04-22T17:24:11.945Z,63.00
2019-04-22T17:26:43.926Z,62.70
2019-04-22T17:29:16.605Z,62.60
2019-04-22T17:31:52.062Z,62.30
2019-04-22T17:34:21.196Z,62.30
2019-04-22T17:36:53.238Z,62.60
2019-04-22T17:39:35.651Z,62.60
2019-04-22T17:42:18.658Z,62.40
2019-04-22T17:44:57.166Z,62.60
2019-04-22T17:47:35.434Z,63.00
2019-04-22T17:50:18.288Z,62.90
2019-04-22T17:52:50.810Z,63.40
2019-04-22T17:55:21.390Z,63.60
2019-04-22T17:57:47.799Z,64.20
2019-04-22T18:00:25.055Z,64.80
2019-04-22T18:02:51.787Z,65.20
2019-04-22T18:05:13.473Z,65.60
2019-04-22T18:08:09.723Z,65.50
2019-04-22T18:10:36.003Z,65.90
2019-04-22T18:13:14.054Z,66.50
2019-04-22T18:15:43.603Z,66.80
2019-04-22T18:18:21.676Z,66.90
2019-04-22T18:20:39.486Z,66.90
2019-04-22T18:23:05.668Z,67.40
2019-04-22T18:25:53.805Z,67.40
2019-04-22T18:28:27.731Z,67.80
2019-04-22T18:30:51.288Z,67.80
2019-04-22T18:33:25.788Z,68.50
2019-04-22T18:35:57.290Z,68.60
2019-04-22T18:38:42.318Z,68.80
2019-04-22T18:40:59.005Z,68.80
2019-04-22T18:43:32.895Z,68.80
2019-04-22T18:46:11.173Z,68.60
2019-04-22T18:48:42.127Z,68.80
2019-04-22T18:51:24.683Z,69.10
2019-04-22T18:54:09.643Z,69.20
2019-04-22T18:56:39.156Z,69.10
2019-04-22T18:58:59.422Z,69.80
2019-04-22T19:01:21.912Z,69.60
2019-04-22T19:04:01.324Z,69.70
2019-04-22T19:06:49.028Z,69.90
2019-04-22T19:09:22.138Z,69.90
2019-04-22T19:12:03.134Z,70.40
2019-04-22T19:14:24.235Z,70.80
2019-04-22T19:17:03.849Z,71.10
2019-04-22T19:19:35.282Z,71.10
2019-04-22T19:21:58.847Z,71.10
2019-04-22T19:24:31.902Z,70.90
2019-04-22T19:27:02.982Z,71.40
2019-04-22T19:29:39.761Z,71.60
2019-04-22T19:32:09.258Z,72.10
2019-04-22T19:34:39.422Z,72.30
2019-04-22T19:37:12.935Z,72.30
2019-04-22T19:39:55.965Z,72.40
2019-04-22T19:42:38.339Z,72.40
2019-04-22T19:45:01.104Z,72.70
2019-04-22T19:47:38.867Z,72.60
2019-04-22T19:50:11.733Z,72.80
2019-04-22T19:52:41.637Z,72.60
2019-04-22T19:55:12.735Z,72.60
2019-04-22T19:57:43.410Z,72.60
2019-04-22T20:00:18.464Z,73.10
2019-04-22T20:03:29.043Z,73.30
2019-04-22T20:05:58.078Z,73.40
2019-04-22T20:08:26.806Z,73.90
2019-04-22T20:10:59.173Z,73.60
2019-04-22T20:13:36.538Z,73.30
2019-04-22T20:15:54.217Z,73.30
2019-04-22T20:18:39.377Z,73.60
2019-04-22T20:21:10.630Z,73.50
2019-04-22T20:23:33.014Z,73.50
2019-04-22T20:26:11.263Z,73.70
2019-04-22T20:28:46.889Z,73.70
2019-04-22T20:31:18.890Z,74.20
2019-04-22T20:33:56.016Z,74.60
2019-04-22T20:36:51.055Z,74.70
2019-04-22T20:38:56.114Z,74.80
2019-04-22T20:41:24.944Z,74.90
2019-04-22T20:44:05.147Z,75.90
2019-04-22T20:46:33.277Z,75.20
2019-04-22T20:49:07.734Z,75.20
2019-04-22T20:51:47.563Z,75.30
2019-04-22T20:54:12.260Z,75.50
2019-04-22T20:56:41.663Z,75.90
2019-04-22T20:59:14.348Z,75.90
2019-04-22T21:01:45.253Z,76.10
2019-04-22T21:04:03.477Z,76.20
2019-04-22T21:06:47.346Z,76.20
2019-04-22T21:09:22.126Z,76.30
2019-04-22T21:11:51.803Z,76.40
2019-04-22T21:14:24.593Z,76.30
2019-04-22T21:17:02.097Z,76.00
2019-04-22T21:19:40.135Z,76.10
2019-04-22T21:22:07.921Z,76.10
2019-04-22T21:24:34.702Z,76.20
2019-04-22T21:27:16.995Z,76.30
2019-04-22T21:29:37.624Z,77.00
2019-04-22T21:32:15.618Z,76.00
2019-04-22T21:34:54.003Z,75.90
2019-04-22T21:37:20.571Z,75.90
2019-04-22T21:39:43.564Z,76.00
2019-04-22T21:42:24.171Z,76.30
2019-04-22T21:44:51.147Z,76.60
2019-04-22T21:47:50.166Z,76.80
2019-04-22T21:50:18.003Z,76.60
2019-04-22T21:52:32.147Z,76.60
2019-04-22T21:55:08.707Z,76.50
2019-04-22T21:58:05.294Z,76.50
2019-04-22T22:00:43.273Z,76.60
2019-04-22T22:03:17.841Z,76.70
2019-04-22T22:05:34.236Z,76.70
2019-04-22T22:08:19.132Z,77.30
2019-04-22T22:10:45.289Z,77.90
2019-04-22T22:13:20.071Z,78.30
2019-04-22T22:15:51.056Z,78.50
2019-04-22T22:18:21.446Z,78.70
2019-04-22T22:21:12.846Z,79.30
2019-04-22T22:23:35.911Z,78.30
2019-04-22T22:25:56.794Z,78.00
2019-04-22T22:28:45.436Z,77.20
2019-04-22T22:31:08.906Z,76.90
2019-04-22T22:33:39.732Z,76.20
2019-04-22T22:36:07.088Z,76.10
2019-04-22T22:38:36.174Z,75.90
2019-04-22T22:40:52.194Z,75.40
2019-04-22T22:43:31.980Z,75.20
2019-04-22T22:46:07.004Z,75.30
2019-04-22T22:48:53.616Z,75.60
2019-04-22T22:51:29.928Z,75.40
2019-04-22T22:53:51.513Z,72.40
2019-04-22T22:56:25.345Z,71.10
2019-04-22T22:58:58.695Z,70.70
2019-04-22T23:01:31.470Z,70.00
2019-04-22T23:04:02.590Z,68.90
2019-04-22T23:06:38.676Z,69.10
2019-04-22T23:09:10.009Z,68.80
2019-04-22T23:14:07.804Z,67.90
2019-04-22T23:16:31.433Z,68.50
2019-04-22T23:19:06.403Z,68.40
2019-04-22T23:21:43.302Z,69.00
2019-04-22T23:24:26.467Z,70.70
2019-04-22T23:27:10.269Z,72.20
2019-04-22T23:30:06.657Z,74.20
2019-04-22T23:32:38.767Z,76.30
2019-04-22T23:35:36.963Z,77.60
2019-04-22T23:38:12.119Z,78.30
2019-04-22T23:40:47.445Z,79.40
2019-04-22T23:43:27.424Z,80.10
2019-04-22T23:45:56.690Z,79.90
2019-04-22T23:48:23.551Z,79.50
2019-04-22T23:51:07.264Z,80.30
2019-04-22T23:53:57.337Z,80.20
2019-04-22T23:56:04.693Z,77.40
